Chisholm, Minnesota
Current Conditions -  °F | °C
As of 12:53 AM on Wednesday 22 Oct 2014 (Local Time) from KHIB Reporting Station
Clear Clear  
Wind Chill: 30°   Ceiling: Unl
Heat Index: 36°   Visibility: 10mi
Dew Point: 33°   Wind: 7mph
Humidity: 89%   Direction: 150°SSE
Pressure: 30.16"   Gusts: NA
Location:  47.49°N, 92.88°W
Report Text: KHIB 220553Z AUTO 15006KT 10SM CLR 02/01 A3016 RMK AO2 SLP226 T00220006 10044 20011 400940011 58004
Loading
Personal Weather Stations






























Interactive Weather Map
Tropical Storm Tracking
New forecast layout! Learn more

10-Day Weather Forecast

Advertisements
Track Severe Weather on mobile